Terminal Aerodrome Forecast
Issued by NWS

Home | Current Version | Previous Version | Text Only | Print | Product List | Glossary On
Versions: 1 2 3 4 5 6 7 8 9 10 11 12 13 14
000
FTUS45 KRIW 231100
TAFJAC
TAF
KJAC 231120Z 2312/2412 VRB05KT P6SM SCT130
     FM231800 18007KT P6SM SCT130
     FM232000 20015G25KT P6SM VCSH SCT120
     FM240100 23007KT P6SM SCT150
      AMD LTD TO CLD VIS AND WIND=

USA.gov is the U.S. government's official web portal to all federal, state and local government web resources and services.